sensor_id;sensor_type;location;lat;lon;timestamp;temperature;humidity
43949;DHT22;29429;51.074;13.764;2023-02-28T00:01:27;1.20;99.90
43949;DHT22;29429;51.074;13.764;2023-02-28T00:03:55;1.20;99.90
43949;DHT22;29429;51.074;13.764;2023-02-28T00:06:22;1.20;99.90
43949;DHT22;29429;51.074;13.764;2023-02-28T00:08:50;1.20;99.90
43949;DHT22;29429;51.074;13.764;2023-02-28T00:11:17;1.10;99.90
43949;DHT22;29429;51.074;13.764;2023-02-28T00:13:46;1.10;99.90
43949;DHT22;29429;51.074;13.764;2023-02-28T00:16:16;1.10;99.90
43949;DHT22;29429;51.074;13.764;2023-02-28T00:18:46;0.90;99.90
43949;DHT22;29429;51.074;13.764;2023-02-28T00:21:15;0.90;99.90
43949;DHT22;29429;51.074;13.764;2023-02-28T00:23:43;0.80;99.90
43949;DHT22;29429;51.074;13.764;2023-02-28T00:26:10;0.90;99.90
43949;DHT22;29429;51.074;13.764;2023-02-28T00:28:38;0.70;99.90
43949;DHT22;29429;51.074;13.764;2023-02-28T00:31:05;0.60;99.90
43949;DHT22;29429;51.074;13.764;2023-02-28T00:33:34;0.60;99.90
43949;DHT22;29429;51.074;13.764;2023-02-28T00:36:03;0.60;99.90
43949;DHT22;29429;51.074;13.764;2023-02-28T00:38:36;0.60;99.90
43949;DHT22;29429;51.074;13.764;2023-02-28T00:41:04;0.70;99.90
43949;DHT22;29429;51.074;13.764;2023-02-28T00:43:36;0.50;99.90
43949;DHT22;29429;51.074;13.764;2023-02-28T00:46:06;0.50;99.90
43949;DHT22;29429;51.074;13.764;2023-02-28T00:48:34;0.40;99.90
43949;DHT22;29429;51.074;13.764;2023-02-28T00:51:02;0.40;99.90
43949;DHT22;29429;51.074;13.764;2023-02-28T00:53:30;0.40;99.90
43949;DHT22;29429;51.074;13.764;2023-02-28T00:55:59;0.30;99.90
43949;DHT22;29429;51.074;13.764;2023-02-28T00:58:26;0.30;99.90
43949;DHT22;29429;51.074;13.764;2023-02-28T01:00:53;0.30;99.90
43949;DHT22;29429;51.074;13.764;2023-02-28T01:03:21;0.20;99.90
43949;DHT22;29429;51.074;13.764;2023-02-28T01:05:49;0.20;99.90
43949;DHT22;29429;51.074;13.764;2023-02-28T01:08:16;0.20;99.90
43949;DHT22;29429;51.074;13.764;2023-02-28T01:10:43;0.20;99.90
43949;DHT22;29429;51.074;13.764;2023-02-28T01:13:11;0.20;99.90
43949;DHT22;29429;51.074;13.764;2023-02-28T01:15:43;0.20;99.90
43949;DHT22;29429;51.074;13.764;2023-02-28T01:18:15;0.20;99.90
43949;DHT22;29429;51.074;13.764;2023-02-28T01:20:42;0.20;99.90
43949;DHT22;29429;51.074;13.764;2023-02-28T01:23:09;0.20;99.90
43949;DHT22;29429;51.074;13.764;2023-02-28T01:25:36;0.30;99.90
43949;DHT22;29429;51.074;13.764;2023-02-28T01:28:05;0.20;99.90
43949;DHT22;29429;51.074;13.764;2023-02-28T01:30:33;0.20;99.90
43949;DHT22;29429;51.074;13.764;2023-02-28T01:33:00;0.20;99.90
43949;DHT22;29429;51.074;13.764;2023-02-28T01:35:28;0.20;99.90
43949;DHT22;29429;51.074;13.764;2023-02-28T01:37:54;0.20;99.90
43949;DHT22;29429;51.074;13.764;2023-02-28T01:40:26;0.20;99.90
43949;DHT22;29429;51.074;13.764;2023-02-28T01:42:54;0.20;99.90
43949;DHT22;29429;51.074;13.764;2023-02-28T01:45:40;0.20;99.90
43949;DHT22;29429;51.074;13.764;2023-02-28T01:48:07;0.10;99.90
43949;DHT22;29429;51.074;13.764;2023-02-28T01:50:39;0.10;99.90
43949;DHT22;29429;51.074;13.764;2023-02-28T01:53:13;0.10;99.90
43949;DHT22;29429;51.074;13.764;2023-02-28T01:55:47;0.10;99.90
43949;DHT22;29429;51.074;13.764;2023-02-28T01:58:16;0.10;99.90
43949;DHT22;29429;51.074;13.764;2023-02-28T02:00:43;0.00;99.90
43949;DHT22;29429;51.074;13.764;2023-02-28T02:03:13;0.00;99.90
43949;DHT22;29429;51.074;13.764;2023-02-28T02:05:45;0.00;99.90
43949;DHT22;29429;51.074;13.764;2023-02-28T02:08:21;-0.10;99.90
43949;DHT22;29429;51.074;13.764;2023-02-28T02:11:00;-0.10;99.90
43949;DHT22;29429;51.074;13.764;2023-02-28T02:33:14;-0.20;99.90
43949;DHT22;29429;51.074;13.764;2023-02-28T02:39:08;-0.20;99.90
43949;DHT22;29429;51.074;13.764;2023-02-28T02:41:48;-0.20;99.90
43949;DHT22;29429;51.074;13.764;2023-02-28T02:44:26;-0.30;99.90
43949;DHT22;29429;51.074;13.764;2023-02-28T02:47:03;-0.30;99.90
43949;DHT22;29429;51.074;13.764;2023-02-28T02:49:38;-0.30;99.90
43949;DHT22;29429;51.074;13.764;2023-02-28T02:52:11;-0.30;99.90
43949;DHT22;29429;51.074;13.764;2023-02-28T02:54:43;-0.30;99.90
43949;DHT22;29429;51.074;13.764;2023-02-28T02:57:35;-0.30;99.90
43949;DHT22;29429;51.074;13.764;2023-02-28T03:00:07;-0.30;99.90
43949;DHT22;29429;51.074;13.764;2023-02-28T03:02:37;-0.40;99.90
43949;DHT22;29429;51.074;13.764;2023-02-28T03:05:12;-0.40;99.90
43949;DHT22;29429;51.074;13.764;2023-02-28T03:07:44;-0.40;99.90
43949;DHT22;29429;51.074;13.764;2023-02-28T03:34:41;-0.90;99.90
43949;DHT22;29429;51.074;13.764;2023-02-28T03:37:00;-1.00;99.90
43949;DHT22;29429;51.074;13.764;2023-02-28T03:39:41;-1.10;99.90
43949;DHT22;29429;51.074;13.764;2023-02-28T03:42:15;-1.20;99.90
43949;DHT22;29429;51.074;13.764;2023-02-28T03:45:02;-1.20;99.90
43949;DHT22;29429;51.074;13.764;2023-02-28T03:53:04;-1.40;99.90
43949;DHT22;29429;51.074;13.764;2023-02-28T03:55:44;-1.40;99.90
43949;DHT22;29429;51.074;13.764;2023-02-28T04:04:01;-1.60;99.90
43949;DHT22;29429;51.074;13.764;2023-02-28T04:06:31;-1.60;99.90
43949;DHT22;29429;51.074;13.764;2023-02-28T04:09:00;-1.60;99.90
43949;DHT22;29429;51.074;13.764;2023-02-28T04:11:39;-1.70;99.90
43949;DHT22;29429;51.074;13.764;2023-02-28T04:14:10;-1.70;99.90
43949;DHT22;29429;51.074;13.764;2023-02-28T04:16:40;-1.70;99.90
43949;DHT22;29429;51.074;13.764;2023-02-28T04:19:09;-1.70;99.90
43949;DHT22;29429;51.074;13.764;2023-02-28T04:21:45;-1.70;99.90
43949;DHT22;29429;51.074;13.764;2023-02-28T04:24:23;-1.80;99.90
43949;DHT22;29429;51.074;13.764;2023-02-28T04:26:54;-1.80;99.90
43949;DHT22;29429;51.074;13.764;2023-02-28T04:29:26;-1.80;99.90
43949;DHT22;29429;51.074;13.764;2023-02-28T04:31:55;-1.80;99.90
43949;DHT22;29429;51.074;13.764;2023-02-28T04:34:26;-1.80;99.90
43949;DHT22;29429;51.074;13.764;2023-02-28T04:36:54;-1.90;99.90
43949;DHT22;29429;51.074;13.764;2023-02-28T04:39:38;-1.90;99.90
43949;DHT22;29429;51.074;13.764;2023-02-28T04:42:06;-2.00;99.90
43949;DHT22;29429;51.074;13.764;2023-02-28T04:44:33;-2.00;99.90
43949;DHT22;29429;51.074;13.764;2023-02-28T04:47:00;-2.00;99.90
43949;DHT22;29429;51.074;13.764;2023-02-28T04:49:27;-2.00;99.90
43949;DHT22;29429;51.074;13.764;2023-02-28T04:51:54;-2.00;99.90
43949;DHT22;29429;51.074;13.764;2023-02-28T04:54:22;-2.10;99.90
43949;DHT22;29429;51.074;13.764;2023-02-28T04:56:49;-2.10;99.90
43949;DHT22;29429;51.074;13.764;2023-02-28T04:59:17;-2.10;99.90
43949;DHT22;29429;51.074;13.764;2023-02-28T05:01:48;-2.10;99.90
43949;DHT22;29429;51.074;13.764;2023-02-28T05:04:16;-2.10;99.90
43949;DHT22;29429;51.074;13.764;2023-02-28T05:06:44;-2.10;99.90
43949;DHT22;29429;51.074;13.764;2023-02-28T05:09:11;-2.20;99.90
43949;DHT22;29429;51.074;13.764;2023-02-28T05:11:38;-2.20;99.90
43949;DHT22;29429;51.074;13.764;2023-02-28T05:14:15;-2.20;99.90
43949;DHT22;29429;51.074;13.764;2023-02-28T05:16:42;-2.20;99.90
43949;DHT22;29429;51.074;13.764;2023-02-28T05:19:10;-2.30;99.90
43949;DHT22;29429;51.074;13.764;2023-02-28T05:21:39;-2.30;99.90
43949;DHT22;29429;51.074;13.764;2023-02-28T05:24:10;-2.30;99.90
43949;DHT22;29429;51.074;13.764;2023-02-28T05:26:41;-2.40;99.90
43949;DHT22;29429;51.074;13.764;2023-02-28T05:29:10;-2.40;99.90
43949;DHT22;29429;51.074;13.764;2023-02-28T05:31:37;-2.40;99.90
43949;DHT22;29429;51.074;13.764;2023-02-28T05:34:04;-2.40;99.90
43949;DHT22;29429;51.074;13.764;2023-02-28T05:36:32;-2.40;99.90
43949;DHT22;29429;51.074;13.764;2023-02-28T05:38:59;-2.40;99.90
43949;DHT22;29429;51.074;13.764;2023-02-28T05:41:26;-2.40;99.90
43949;DHT22;29429;51.074;13.764;2023-02-28T05:43:54;-2.40;99.90
43949;DHT22;29429;51.074;13.764;2023-02-28T05:46:21;-2.40;99.90
43949;DHT22;29429;51.074;13.764;2023-02-28T05:48:49;-2.40;99.90
43949;DHT22;29429;51.074;13.764;2023-02-28T05:51:17;-2.40;99.90
43949;DHT22;29429;51.074;13.764;2023-02-28T05:53:44;-2.40;99.90
43949;DHT22;29429;51.074;13.764;2023-02-28T05:56:12;-2.40;99.90
43949;DHT22;29429;51.074;13.764;2023-02-28T05:58:39;-2.40;99.90
43949;DHT22;29429;51.074;13.764;2023-02-28T06:03:50;-2.40;99.90
43949;DHT22;29429;51.074;13.764;2023-02-28T06:06:18;-2.40;99.90
43949;DHT22;29429;51.074;13.764;2023-02-28T06:08:45;-2.50;99.90
43949;DHT22;29429;51.074;13.764;2023-02-28T06:11:12;-2.40;99.90
43949;DHT22;29429;51.074;13.764;2023-02-28T06:13:39;-2.40;99.90
43949;DHT22;29429;51.074;13.764;2023-02-28T06:16:07;-2.40;99.90
43949;DHT22;29429;51.074;13.764;2023-02-28T06:18:35;-2.40;99.90
43949;DHT22;29429;51.074;13.764;2023-02-28T06:21:03;-2.30;99.90
43949;DHT22;29429;51.074;13.764;2023-02-28T06:23:30;-2.30;99.90
43949;DHT22;29429;51.074;13.764;2023-02-28T06:25:57;-2.40;99.90
43949;DHT22;29429;51.074;13.764;2023-02-28T06:28:25;-2.30;99.90
43949;DHT22;29429;51.074;13.764;2023-02-28T06:30:52;-2.30;99.90
43949;DHT22;29429;51.074;13.764;2023-02-28T06:33:20;-2.30;99.90
43949;DHT22;29429;51.074;13.764;2023-02-28T06:35:50;-2.30;99.90
43949;DHT22;29429;51.074;13.764;2023-02-28T06:38:17;-2.20;99.90
43949;DHT22;29429;51.074;13.764;2023-02-28T06:40:53;-2.20;99.90
43949;DHT22;29429;51.074;13.764;2023-02-28T06:43:21;-2.20;99.90
43949;DHT22;29429;51.074;13.764;2023-02-28T06:45:49;-2.20;99.90
43949;DHT22;29429;51.074;13.764;2023-02-28T06:48:16;-2.20;99.90
43949;DHT22;29429;51.074;13.764;2023-02-28T06:50:44;-2.10;99.90
43949;DHT22;29429;51.074;13.764;2023-02-28T06:53:12;-2.10;99.90
43949;DHT22;29429;51.074;13.764;2023-02-28T06:56:23;-2.00;99.90
43949;DHT22;29429;51.074;13.764;2023-02-28T06:58:54;-1.80;99.90
43949;DHT22;29429;51.074;13.764;2023-02-28T07:02:17;-1.60;99.90
43949;DHT22;29429;51.074;13.764;2023-02-28T07:04:46;-1.40;99.90
43949;DHT22;29429;51.074;13.764;2023-02-28T07:07:20;-1.30;99.90
43949;DHT22;29429;51.074;13.764;2023-02-28T07:09:54;-1.10;99.90
43949;DHT22;29429;51.074;13.764;2023-02-28T07:12:26;-1.00;99.90
43949;DHT22;29429;51.074;13.764;2023-02-28T07:14:57;-0.80;99.90
43949;DHT22;29429;51.074;13.764;2023-02-28T07:17:24;-0.60;99.90
43949;DHT22;29429;51.074;13.764;2023-02-28T07:19:55;-0.40;99.90
43949;DHT22;29429;51.074;13.764;2023-02-28T07:22:23;-0.30;99.90
43949;DHT22;29429;51.074;13.764;2023-02-28T07:25:08;-0.10;99.90
43949;DHT22;29429;51.074;13.764;2023-02-28T07:30:43;-0.10;99.90
43949;DHT22;29429;51.074;13.764;2023-02-28T07:33:16;-0.10;99.90
43949;DHT22;29429;51.074;13.764;2023-02-28T07:36:18;0.00;99.90
43949;DHT22;29429;51.074;13.764;2023-02-28T07:41:55;0.10;99.90
43949;DHT22;29429;51.074;13.764;2023-02-28T07:47:41;0.10;99.90
43949;DHT22;29429;51.074;13.764;2023-02-28T07:50:18;0.20;99.90
43949;DHT22;29429;51.074;13.764;2023-02-28T07:53:53;0.20;99.90
43949;DHT22;29429;51.074;13.764;2023-02-28T07:57:06;0.40;99.90
43949;DHT22;29429;51.074;13.764;2023-02-28T08:00:29;0.60;99.90
43949;DHT22;29429;51.074;13.764;2023-02-28T08:02:59;0.80;99.90
43949;DHT22;29429;51.074;13.764;2023-02-28T08:05:38;1.00;99.90
43949;DHT22;29429;51.074;13.764;2023-02-28T08:08:11;1.20;99.90
43949;DHT22;29429;51.074;13.764;2023-02-28T08:10:45;1.30;99.90
43949;DHT22;29429;51.074;13.764;2023-02-28T08:13:22;1.50;99.90
43949;DHT22;29429;51.074;13.764;2023-02-28T08:15:50;1.60;99.90
43949;DHT22;29429;51.074;13.764;2023-02-28T08:18:21;1.80;99.90
43949;DHT22;29429;51.074;13.764;2023-02-28T08:20:55;2.00;99.90
43949;DHT22;29429;51.074;13.764;2023-02-28T08:23:25;2.10;99.90
43949;DHT22;29429;51.074;13.764;2023-02-28T08:26:17;2.30;99.90
43949;DHT22;29429;51.074;13.764;2023-02-28T08:28:46;2.40;99.90
43949;DHT22;29429;51.074;13.764;2023-02-28T08:31:17;2.60;99.90
43949;DHT22;29429;51.074;13.764;2023-02-28T08:33:52;2.70;99.90
43949;DHT22;29429;51.074;13.764;2023-02-28T08:36:27;2.90;99.90
43949;DHT22;29429;51.074;13.764;2023-02-28T08:38:57;3.00;99.90
43949;DHT22;29429;51.074;13.764;2023-02-28T08:41:31;3.10;99.90
43949;DHT22;29429;51.074;13.764;2023-02-28T08:44:02;3.20;99.90
43949;DHT22;29429;51.074;13.764;2023-02-28T08:46:46;3.10;99.90
43949;DHT22;29429;51.074;13.764;2023-02-28T08:49:17;3.20;99.90
43949;DHT22;29429;51.074;13.764;2023-02-28T08:51:49;3.30;99.90
43949;DHT22;29429;51.074;13.764;2023-02-28T08:55:04;3.40;99.90
43949;DHT22;29429;51.074;13.764;2023-02-28T08:57:45;3.50;99.90
43949;DHT22;29429;51.074;13.764;2023-02-28T09:00:34;3.60;99.90
43949;DHT22;29429;51.074;13.764;2023-02-28T09:09:08;3.80;99.90
43949;DHT22;29429;51.074;13.764;2023-02-28T09:11:37;4.10;99.90
43949;DHT22;29429;51.074;13.764;2023-02-28T09:14:04;4.20;99.90
43949;DHT22;29429;51.074;13.764;2023-02-28T09:16:32;4.30;99.90
43949;DHT22;29429;51.074;13.764;2023-02-28T09:19:00;4.10;99.90
43949;DHT22;29429;51.074;13.764;2023-02-28T09:21:28;4.10;99.90
43949;DHT22;29429;51.074;13.764;2023-02-28T09:23:57;4.10;99.90
43949;DHT22;29429;51.074;13.764;2023-02-28T09:26:27;4.00;99.90
43949;DHT22;29429;51.074;13.764;2023-02-28T09:29:19;4.00;99.90
43949;DHT22;29429;51.074;13.764;2023-02-28T09:34:46;3.90;99.90
43949;DHT22;29429;51.074;13.764;2023-02-28T09:37:26;3.90;99.90
43949;DHT22;29429;51.074;13.764;2023-02-28T09:39:59;3.90;99.90
43949;DHT22;29429;51.074;13.764;2023-02-28T09:42:32;4.00;99.90
43949;DHT22;29429;51.074;13.764;2023-02-28T09:45:02;4.10;99.90
43949;DHT22;29429;51.074;13.764;2023-02-28T09:47:41;4.10;99.90
43949;DHT22;29429;51.074;13.764;2023-02-28T09:52:54;3.90;99.90
43949;DHT22;29429;51.074;13.764;2023-02-28T09:55:36;3.70;99.90
43949;DHT22;29429;51.074;13.764;2023-02-28T10:10:49;3.10;99.90
43949;DHT22;29429;51.074;13.764;2023-02-28T10:16:22;2.90;99.90
43949;DHT22;29429;51.074;13.764;2023-02-28T10:19:16;2.90;99.90
43949;DHT22;29429;51.074;13.764;2023-02-28T10:24:55;3.00;99.90
43949;DHT22;29429;51.074;13.764;2023-02-28T10:27:34;3.20;99.90
43949;DHT22;29429;51.074;13.764;2023-02-28T10:30:02;3.30;99.90
43949;DHT22;29429;51.074;13.764;2023-02-28T10:32:33;3.50;99.90
43949;DHT22;29429;51.074;13.764;2023-02-28T10:35:20;3.60;99.90
43949;DHT22;29429;51.074;13.764;2023-02-28T10:37:50;3.60;99.90
43949;DHT22;29429;51.074;13.764;2023-02-28T10:45:34;4.10;99.90
43949;DHT22;29429;51.074;13.764;2023-02-28T10:48:31;4.20;99.90
43949;DHT22;29429;51.074;13.764;2023-02-28T10:51:13;4.30;99.90
43949;DHT22;29429;51.074;13.764;2023-02-28T10:53:51;4.30;99.90
43949;DHT22;29429;51.074;13.764;2023-02-28T10:56:29;4.40;99.90
43949;DHT22;29429;51.074;13.764;2023-02-28T11:01:49;4.70;99.90
43949;DHT22;29429;51.074;13.764;2023-02-28T11:07:00;4.50;98.30
43949;DHT22;29429;51.074;13.764;2023-02-28T11:09:34;4.20;99.10
43949;DHT22;29429;51.074;13.764;2023-02-28T11:12:20;4.00;98.60
43949;DHT22;29429;51.074;13.764;2023-02-28T11:14:58;3.90;99.90
43949;DHT22;29429;51.074;13.764;2023-02-28T11:17:33;3.90;99.90
43949;DHT22;29429;51.074;13.764;2023-02-28T11:20:10;3.90;99.90
43949;DHT22;29429;51.074;13.764;2023-02-28T11:22:47;3.80;99.90
43949;DHT22;29429;51.074;13.764;2023-02-28T11:25:36;3.70;99.90
43949;DHT22;29429;51.074;13.764;2023-02-28T11:28:27;3.70;99.90
43949;DHT22;29429;51.074;13.764;2023-02-28T11:33:55;3.70;99.90
43949;DHT22;29429;51.074;13.764;2023-02-28T11:36:25;3.40;99.90
43949;DHT22;29429;51.074;13.764;2023-02-28T11:38:58;3.30;99.90
43949;DHT22;29429;51.074;13.764;2023-02-28T11:44:57;3.30;99.90
43949;DHT22;29429;51.074;13.764;2023-02-28T11:47:42;3.40;99.90
43949;DHT22;29429;51.074;13.764;2023-02-28T11:50:22;3.60;99.90
43949;DHT22;29429;51.074;13.764;2023-02-28T11:56:06;3.80;99.90
43949;DHT22;29429;51.074;13.764;2023-02-28T12:02:29;3.90;99.90
43949;DHT22;29429;51.074;13.764;2023-02-28T12:05:37;4.00;99.90
43949;DHT22;29429;51.074;13.764;2023-02-28T12:11:37;3.90;99.90
43949;DHT22;29429;51.074;13.764;2023-02-28T12:23:36;3.70;99.90
43949;DHT22;29429;51.074;13.764;2023-02-28T12:26:35;3.80;99.90
43949;DHT22;29429;51.074;13.764;2023-02-28T12:29:56;3.60;99.90
43949;DHT22;29429;51.074;13.764;2023-02-28T12:32:30;3.60;99.90
43949;DHT22;29429;51.074;13.764;2023-02-28T12:37:40;3.60;99.90
43949;DHT22;29429;51.074;13.764;2023-02-28T12:40:20;3.60;99.90
43949;DHT22;29429;51.074;13.764;2023-02-28T12:42:52;3.60;99.90
43949;DHT22;29429;51.074;13.764;2023-02-28T12:48:20;3.60;99.90
43949;DHT22;29429;51.074;13.764;2023-02-28T12:50:52;3.70;99.90
43949;DHT22;29429;51.074;13.764;2023-02-28T12:59:00;3.70;99.90
43949;DHT22;29429;51.074;13.764;2023-02-28T13:10:05;3.40;99.90
43949;DHT22;29429;51.074;13.764;2023-02-28T13:12:35;3.50;99.90
43949;DHT22;29429;51.074;13.764;2023-02-28T13:15:22;3.50;99.90
43949;DHT22;29429;51.074;13.764;2023-02-28T13:17:53;3.40;99.90
43949;DHT22;29429;51.074;13.764;2023-02-28T13:20:35;3.50;99.90
43949;DHT22;29429;51.074;13.764;2023-02-28T13:23:03;3.40;99.90
43949;DHT22;29429;51.074;13.764;2023-02-28T13:26:13;3.50;99.90
43949;DHT22;29429;51.074;13.764;2023-02-28T13:39:53;3.80;99.90
43949;DHT22;29429;51.074;13.764;2023-02-28T13:42:37;3.90;99.90
43949;DHT22;29429;51.074;13.764;2023-02-28T13:45:23;3.80;99.90
43949;DHT22;29429;51.074;13.764;2023-02-28T13:48:00;3.90;99.90
43949;DHT22;29429;51.074;13.764;2023-02-28T13:50:39;3.90;99.90
43949;DHT22;29429;51.074;13.764;2023-02-28T13:56:01;4.00;99.90
43949;DHT22;29429;51.074;13.764;2023-02-28T14:04:54;4.10;99.90
43949;DHT22;29429;51.074;13.764;2023-02-28T14:07:47;4.20;99.90
43949;DHT22;29429;51.074;13.764;2023-02-28T14:10:30;4.20;99.90
43949;DHT22;29429;51.074;13.764;2023-02-28T14:13:02;4.30;99.90
43949;DHT22;29429;51.074;13.764;2023-02-28T14:16:06;4.30;99.90
43949;DHT22;29429;51.074;13.764;2023-02-28T14:18:36;4.30;99.90
43949;DHT22;29429;51.074;13.764;2023-02-28T14:21:31;4.30;99.90
43949;DHT22;29429;51.074;13.764;2023-02-28T14:36:03;4.30;99.90
43949;DHT22;29429;51.074;13.764;2023-02-28T14:38:45;4.20;99.90
43949;DHT22;29429;51.074;13.764;2023-02-28T14:41:23;4.20;99.90
43949;DHT22;29429;51.074;13.764;2023-02-28T14:43:58;4.10;99.90
43949;DHT22;29429;51.074;13.764;2023-02-28T14:46:37;4.10;99.90
43949;DHT22;29429;51.074;13.764;2023-02-28T14:49:11;4.00;99.90
43949;DHT22;29429;51.074;13.764;2023-02-28T14:51:43;3.90;99.90
43949;DHT22;29429;51.074;13.764;2023-02-28T14:54:15;3.90;99.90
43949;DHT22;29429;51.074;13.764;2023-02-28T14:56:49;3.80;99.90
43949;DHT22;29429;51.074;13.764;2023-02-28T14:59:34;3.70;99.90
43949;DHT22;29429;51.074;13.764;2023-02-28T15:04:41;3.60;99.90
43949;DHT22;29429;51.074;13.764;2023-02-28T15:07:11;3.50;99.90
43949;DHT22;29429;51.074;13.764;2023-02-28T15:09:41;3.40;99.90
43949;DHT22;29429;51.074;13.764;2023-02-28T15:12:13;3.40;99.90
43949;DHT22;29429;51.074;13.764;2023-02-28T15:14:43;3.40;99.90
43949;DHT22;29429;51.074;13.764;2023-02-28T15:17:23;3.40;99.90
43949;DHT22;29429;51.074;13.764;2023-02-28T15:19:52;3.40;99.90
43949;DHT22;29429;51.074;13.764;2023-02-28T15:22:30;3.40;99.90
43949;DHT22;29429;51.074;13.764;2023-02-28T15:25:03;3.30;99.90
43949;DHT22;29429;51.074;13.764;2023-02-28T15:27:33;3.20;99.90
43949;DHT22;29429;51.074;13.764;2023-02-28T15:30:08;3.20;99.90
43949;DHT22;29429;51.074;13.764;2023-02-28T15:32:42;3.10;99.90
43949;DHT22;29429;51.074;13.764;2023-02-28T15:38:25;3.00;99.90
43949;DHT22;29429;51.074;13.764;2023-02-28T15:40:57;3.00;99.90
43949;DHT22;29429;51.074;13.764;2023-02-28T15:43:31;3.00;99.90
43949;DHT22;29429;51.074;13.764;2023-02-28T15:46:10;2.90;99.90
43949;DHT22;29429;51.074;13.764;2023-02-28T15:51:20;2.90;99.90
43949;DHT22;29429;51.074;13.764;2023-02-28T15:54:02;2.80;99.90
43949;DHT22;29429;51.074;13.764;2023-02-28T15:56:39;2.80;99.90
43949;DHT22;29429;51.074;13.764;2023-02-28T15:59:20;2.70;99.90
43949;DHT22;29429;51.074;13.764;2023-02-28T16:07:39;2.60;99.90
43949;DHT22;29429;51.074;13.764;2023-02-28T16:10:11;2.70;99.90
43949;DHT22;29429;51.074;13.764;2023-02-28T16:12:41;2.50;99.90
43949;DHT22;29429;51.074;13.764;2023-02-28T16:15:20;2.40;99.90
43949;DHT22;29429;51.074;13.764;2023-02-28T16:17:49;2.40;99.90
43949;DHT22;29429;51.074;13.764;2023-02-28T16:20:22;2.30;99.90
43949;DHT22;29429;51.074;13.764;2023-02-28T16:22:51;2.30;99.90
43949;DHT22;29429;51.074;13.764;2023-02-28T16:25:22;2.20;99.90
43949;DHT22;29429;51.074;13.764;2023-02-28T16:27:54;2.10;99.90
43949;DHT22;29429;51.074;13.764;2023-02-28T16:30:26;2.10;99.90
43949;DHT22;29429;51.074;13.764;2023-02-28T16:32:58;2.10;99.90
43949;DHT22;29429;51.074;13.764;2023-02-28T16:35:25;2.00;99.90
43949;DHT22;29429;51.074;13.764;2023-02-28T16:37:53;2.00;99.90
43949;DHT22;29429;51.074;13.764;2023-02-28T16:40:24;1.80;99.90
43949;DHT22;29429;51.074;13.764;2023-02-28T16:42:55;1.80;99.90
43949;DHT22;29429;51.074;13.764;2023-02-28T16:45:28;1.70;99.90
43949;DHT22;29429;51.074;13.764;2023-02-28T16:47:56;1.60;99.90
43949;DHT22;29429;51.074;13.764;2023-02-28T16:50:25;1.50;99.90
43949;DHT22;29429;51.074;13.764;2023-02-28T16:52:54;1.50;99.90
43949;DHT22;29429;51.074;13.764;2023-02-28T16:55:22;1.40;99.90
43949;DHT22;29429;51.074;13.764;2023-02-28T16:57:57;1.40;99.90
43949;DHT22;29429;51.074;13.764;2023-02-28T17:00:26;1.20;99.90
43949;DHT22;29429;51.074;13.764;2023-02-28T17:02:55;1.20;99.90
43949;DHT22;29429;51.074;13.764;2023-02-28T17:05:23;1.20;99.90
43949;DHT22;29429;51.074;13.764;2023-02-28T17:07:50;1.10;99.90
43949;DHT22;29429;51.074;13.764;2023-02-28T17:10:20;1.10;99.90
43949;DHT22;29429;51.074;13.764;2023-02-28T17:12:49;1.00;99.90
43949;DHT22;29429;51.074;13.764;2023-02-28T17:15:22;0.90;99.90
43949;DHT22;29429;51.074;13.764;2023-02-28T17:17:52;0.90;99.90
43949;DHT22;29429;51.074;13.764;2023-02-28T17:20:21;0.90;99.90
43949;DHT22;29429;51.074;13.764;2023-02-28T17:22:53;0.70;99.90
43949;DHT22;29429;51.074;13.764;2023-02-28T17:25:21;0.80;99.90
43949;DHT22;29429;51.074;13.764;2023-02-28T17:27:49;0.60;99.90
43949;DHT22;29429;51.074;13.764;2023-02-28T17:30:20;0.50;99.90
43949;DHT22;29429;51.074;13.764;2023-02-28T17:32:50;0.50;99.90
43949;DHT22;29429;51.074;13.764;2023-02-28T17:35:17;0.40;99.90
43949;DHT22;29429;51.074;13.764;2023-02-28T17:37:44;0.30;99.90
43949;DHT22;29429;51.074;13.764;2023-02-28T17:40:16;0.30;99.90
43949;DHT22;29429;51.074;13.764;2023-02-28T17:42:46;0.20;99.90
43949;DHT22;29429;51.074;13.764;2023-02-28T17:45:15;0.20;99.90
43949;DHT22;29429;51.074;13.764;2023-02-28T17:47:44;0.10;99.90
43949;DHT22;29429;51.074;13.764;2023-02-28T17:50:17;0.00;99.90
43949;DHT22;29429;51.074;13.764;2023-02-28T17:52:45;-0.10;99.90
43949;DHT22;29429;51.074;13.764;2023-02-28T17:55:13;-0.10;99.90
43949;DHT22;29429;51.074;13.764;2023-02-28T17:57:40;-0.20;99.90
43949;DHT22;29429;51.074;13.764;2023-02-28T18:00:12;-0.20;99.90
43949;DHT22;29429;51.074;13.764;2023-02-28T18:02:41;-0.30;99.90
43949;DHT22;29429;51.074;13.764;2023-02-28T18:05:09;-0.30;99.90
43949;DHT22;29429;51.074;13.764;2023-02-28T18:07:37;-0.40;99.90
43949;DHT22;29429;51.074;13.764;2023-02-28T18:10:06;-0.40;99.90
43949;DHT22;29429;51.074;13.764;2023-02-28T18:12:39;-0.40;99.90
43949;DHT22;29429;51.074;13.764;2023-02-28T18:15:06;-0.50;99.90
43949;DHT22;29429;51.074;13.764;2023-02-28T18:17:34;-0.50;99.90
43949;DHT22;29429;51.074;13.764;2023-02-28T18:20:00;-0.50;99.90
43949;DHT22;29429;51.074;13.764;2023-02-28T18:22:27;-0.60;99.90
43949;DHT22;29429;51.074;13.764;2023-02-28T18:24:54;-0.60;99.90
43949;DHT22;29429;51.074;13.764;2023-02-28T18:27:21;-0.60;99.90
43949;DHT22;29429;51.074;13.764;2023-02-28T18:29:48;-0.70;99.90
43949;DHT22;29429;51.074;13.764;2023-02-28T18:32:17;-0.60;99.90
43949;DHT22;29429;51.074;13.764;2023-02-28T18:34:44;-0.70;99.90
43949;DHT22;29429;51.074;13.764;2023-02-28T18:37:11;-0.70;99.90
43949;DHT22;29429;51.074;13.764;2023-02-28T18:39:38;-0.70;99.90
43949;DHT22;29429;51.074;13.764;2023-02-28T18:42:06;-0.80;99.90
43949;DHT22;29429;51.074;13.764;2023-02-28T18:44:36;-0.80;99.90
43949;DHT22;29429;51.074;13.764;2023-02-28T18:47:03;-0.80;99.90
43949;DHT22;29429;51.074;13.764;2023-02-28T18:49:31;-0.80;99.90
43949;DHT22;29429;51.074;13.764;2023-02-28T18:52:01;-0.80;99.90
43949;DHT22;29429;51.074;13.764;2023-02-28T18:54:28;-0.90;99.90
43949;DHT22;29429;51.074;13.764;2023-02-28T18:56:55;-0.90;99.90
43949;DHT22;29429;51.074;13.764;2023-02-28T18:59:22;-0.90;99.90
43949;DHT22;29429;51.074;13.764;2023-02-28T19:01:49;-0.90;99.90
43949;DHT22;29429;51.074;13.764;2023-02-28T19:04:16;-1.00;99.90
43949;DHT22;29429;51.074;13.764;2023-02-28T19:06:43;-1.00;99.90
43949;DHT22;29429;51.074;13.764;2023-02-28T19:09:11;-1.00;99.90
43949;DHT22;29429;51.074;13.764;2023-02-28T19:11:38;-1.00;99.90
43949;DHT22;29429;51.074;13.764;2023-02-28T19:14:06;-1.00;99.90
43949;DHT22;29429;51.074;13.764;2023-02-28T19:16:35;-1.10;99.90
43949;DHT22;29429;51.074;13.764;2023-02-28T19:23:57;-1.00;99.90
43949;DHT22;29429;51.074;13.764;2023-02-28T19:26:24;-1.20;99.90
43949;DHT22;29429;51.074;13.764;2023-02-28T19:28:52;-1.20;99.90
43949;DHT22;29429;51.074;13.764;2023-02-28T19:31:24;-1.30;99.90